sensor_id;sensor_type;location;lat;lon;timestamp;temperature;humidity
22827;DHT22;11580;52.562;13.418;2023-04-03T00:00:55;5.10;30.50
22827;DHT22;11580;52.562;13.418;2023-04-03T00:03:24;5.10;30.50
22827;DHT22;11580;52.562;13.418;2023-04-03T00:05:51;5.00;30.30
22827;DHT22;11580;52.562;13.418;2023-04-03T00:08:18;5.00;30.50
22827;DHT22;11580;52.562;13.418;2023-04-03T00:10:46;5.00;30.40
22827;DHT22;11580;52.562;13.418;2023-04-03T00:13:13;5.00;30.50
22827;DHT22;11580;52.562;13.418;2023-04-03T00:15:41;5.00;30.50
22827;DHT22;11580;52.562;13.418;2023-04-03T00:18:09;5.00;30.60
22827;DHT22;11580;52.562;13.418;2023-04-03T00:20:37;5.00;30.60
22827;DHT22;11580;52.562;13.418;2023-04-03T00:23:04;4.90;30.50
22827;DHT22;11580;52.562;13.418;2023-04-03T00:25:32;4.90;30.60
22827;DHT22;11580;52.562;13.418;2023-04-03T00:27:59;4.90;30.70
22827;DHT22;11580;52.562;13.418;2023-04-03T00:30:26;4.90;30.70
22827;DHT22;11580;52.562;13.418;2023-04-03T00:32:54;4.90;30.60
22827;DHT22;11580;52.562;13.418;2023-04-03T00:35:22;4.90;30.60
22827;DHT22;11580;52.562;13.418;2023-04-03T00:37:53;4.90;30.60
22827;DHT22;11580;52.562;13.418;2023-04-03T00:40:22;4.80;30.40
22827;DHT22;11580;52.562;13.418;2023-04-03T00:42:56;4.80;30.60
22827;DHT22;11580;52.562;13.418;2023-04-03T00:45:32;4.80;30.40
22827;DHT22;11580;52.562;13.418;2023-04-03T00:48:04;4.80;30.40
22827;DHT22;11580;52.562;13.418;2023-04-03T00:50:35;4.80;30.50
22827;DHT22;11580;52.562;13.418;2023-04-03T00:53:08;4.70;30.50
22827;DHT22;11580;52.562;13.418;2023-04-03T00:55:39;4.70;30.50
22827;DHT22;11580;52.562;13.418;2023-04-03T00:58:08;4.70;30.80
22827;DHT22;11580;52.562;13.418;2023-04-03T01:00:37;4.70;30.90
22827;DHT22;11580;52.562;13.418;2023-04-03T01:03:08;4.70;30.80
22827;DHT22;11580;52.562;13.418;2023-04-03T01:05:38;4.70;30.80
22827;DHT22;11580;52.562;13.418;2023-04-03T01:08:08;4.60;30.80
22827;DHT22;11580;52.562;13.418;2023-04-03T01:10:36;4.60;30.80
22827;DHT22;11580;52.562;13.418;2023-04-03T01:13:19;4.60;30.80
22827;DHT22;11580;52.562;13.418;2023-04-03T01:15:49;4.60;30.30
22827;DHT22;11580;52.562;13.418;2023-04-03T01:18:17;4.60;30.80
22827;DHT22;11580;52.562;13.418;2023-04-03T01:21:19;4.60;30.80
22827;DHT22;11580;52.562;13.418;2023-04-03T01:24:22;4.80;30.40
22827;DHT22;11580;52.562;13.418;2023-04-03T01:27:02;4.50;30.40
22827;DHT22;11580;52.562;13.418;2023-04-03T01:29:31;4.50;30.70
22827;DHT22;11580;52.562;13.418;2023-04-03T01:32:01;4.50;30.70
22827;DHT22;11580;52.562;13.418;2023-04-03T01:34:30;4.50;30.70
22827;DHT22;11580;52.562;13.418;2023-04-03T01:36:59;4.50;30.80
22827;DHT22;11580;52.562;13.418;2023-04-03T01:39:26;4.40;30.80
22827;DHT22;11580;52.562;13.418;2023-04-03T01:41:53;4.40;30.90
22827;DHT22;11580;52.562;13.418;2023-04-03T01:44:27;4.40;31.00
22827;DHT22;11580;52.562;13.418;2023-04-03T01:46:55;4.40;31.00
22827;DHT22;11580;52.562;13.418;2023-04-03T01:49:25;4.40;31.00
22827;DHT22;11580;52.562;13.418;2023-04-03T01:51:52;4.30;30.90
22827;DHT22;11580;52.562;13.418;2023-04-03T01:54:19;4.30;31.00
22827;DHT22;11580;52.562;13.418;2023-04-03T01:56:46;4.30;31.10
22827;DHT22;11580;52.562;13.418;2023-04-03T01:59:13;4.30;31.10
22827;DHT22;11580;52.562;13.418;2023-04-03T02:01:43;4.30;31.10
22827;DHT22;11580;52.562;13.418;2023-04-03T02:04:12;4.30;31.10
22827;DHT22;11580;52.562;13.418;2023-04-03T02:06:41;4.20;31.10
22827;DHT22;11580;52.562;13.418;2023-04-03T02:09:09;4.20;31.00
22827;DHT22;11580;52.562;13.418;2023-04-03T02:11:36;4.20;31.10
22827;DHT22;11580;52.562;13.418;2023-04-03T02:14:03;4.20;31.80
22827;DHT22;11580;52.562;13.418;2023-04-03T02:16:30;4.20;31.10
22827;DHT22;11580;52.562;13.418;2023-04-03T02:18:58;4.10;31.10
22827;DHT22;11580;52.562;13.418;2023-04-03T02:21:25;4.10;31.20
22827;DHT22;11580;52.562;13.418;2023-04-03T02:23:54;4.10;31.30
22827;DHT22;11580;52.562;13.418;2023-04-03T02:26:23;4.10;31.30
22827;DHT22;11580;52.562;13.418;2023-04-03T02:28:50;4.10;31.40
22827;DHT22;11580;52.562;13.418;2023-04-03T02:31:17;4.10;31.40
22827;DHT22;11580;52.562;13.418;2023-04-03T02:33:46;4.00;31.40
22827;DHT22;11580;52.562;13.418;2023-04-03T02:36:14;4.00;31.40
22827;DHT22;11580;52.562;13.418;2023-04-03T02:38:46;4.00;32.20
22827;DHT22;11580;52.562;13.418;2023-04-03T02:41:15;4.00;31.50
22827;DHT22;11580;52.562;13.418;2023-04-03T02:43:42;4.00;31.50
22827;DHT22;11580;52.562;13.418;2023-04-03T02:46:09;4.00;31.50
22827;DHT22;11580;52.562;13.418;2023-04-03T02:48:37;4.00;31.50
22827;DHT22;11580;52.562;13.418;2023-04-03T02:51:04;4.00;31.60
22827;DHT22;11580;52.562;13.418;2023-04-03T02:53:31;3.90;31.50
22827;DHT22;11580;52.562;13.418;2023-04-03T02:56:05;3.90;31.50
22827;DHT22;11580;52.562;13.418;2023-04-03T02:58:34;3.90;31.50
22827;DHT22;11580;52.562;13.418;2023-04-03T03:01:02;3.90;31.50
22827;DHT22;11580;52.562;13.418;2023-04-03T03:03:30;3.90;31.60
22827;DHT22;11580;52.562;13.418;2023-04-03T03:06:02;3.90;31.60
22827;DHT22;11580;52.562;13.418;2023-04-03T03:08:30;3.90;31.50
22827;DHT22;11580;52.562;13.418;2023-04-03T03:10:57;3.90;31.70
22827;DHT22;11580;52.562;13.418;2023-04-03T03:13:24;3.90;31.80
22827;DHT22;11580;52.562;13.418;2023-04-03T03:15:53;3.80;31.60
22827;DHT22;11580;52.562;13.418;2023-04-03T03:18:21;3.80;31.60
22827;DHT22;11580;52.562;13.418;2023-04-03T03:20:51;3.80;31.60
22827;DHT22;11580;52.562;13.418;2023-04-03T03:23:19;3.80;31.60
22827;DHT22;11580;52.562;13.418;2023-04-03T03:25:47;3.70;31.70
22827;DHT22;11580;52.562;13.418;2023-04-03T03:28:14;3.80;31.80
22827;DHT22;11580;52.562;13.418;2023-04-03T03:30:42;3.70;31.80
22827;DHT22;11580;52.562;13.418;2023-04-03T03:33:11;3.70;31.80
22827;DHT22;11580;52.562;13.418;2023-04-03T03:35:38;3.70;31.80
22827;DHT22;11580;52.562;13.418;2023-04-03T03:38:05;3.70;31.90
22827;DHT22;11580;52.562;13.418;2023-04-03T03:40:33;3.70;31.90
22827;DHT22;11580;52.562;13.418;2023-04-03T03:43:00;3.70;31.90
22827;DHT22;11580;52.562;13.418;2023-04-03T03:45:27;3.70;31.90
22827;DHT22;11580;52.562;13.418;2023-04-03T03:47:54;3.70;32.00
22827;DHT22;11580;52.562;13.418;2023-04-03T03:50:23;3.60;32.00
22827;DHT22;11580;52.562;13.418;2023-04-03T03:52:50;3.60;31.90
22827;DHT22;11580;52.562;13.418;2023-04-03T03:55:17;3.60;32.00
22827;DHT22;11580;52.562;13.418;2023-04-03T03:57:50;3.60;32.00
22827;DHT22;11580;52.562;13.418;2023-04-03T04:00:17;3.60;32.30
22827;DHT22;11580;52.562;13.418;2023-04-03T04:02:51;3.60;32.00
22827;DHT22;11580;52.562;13.418;2023-04-03T04:05:22;3.60;32.10
22827;DHT22;11580;52.562;13.418;2023-04-03T04:07:51;3.60;32.10
22827;DHT22;11580;52.562;13.418;2023-04-03T04:10:18;3.60;32.10
22827;DHT22;11580;52.562;13.418;2023-04-03T04:12:46;3.60;32.10
22827;DHT22;11580;52.562;13.418;2023-04-03T04:15:15;3.60;32.10
22827;DHT22;11580;52.562;13.418;2023-04-03T04:17:42;3.60;32.10
22827;DHT22;11580;52.562;13.418;2023-04-03T04:20:11;3.60;32.20
22827;DHT22;11580;52.562;13.418;2023-04-03T04:22:40;3.60;32.20
22827;DHT22;11580;52.562;13.418;2023-04-03T04:25:08;3.60;32.20
22827;DHT22;11580;52.562;13.418;2023-04-03T04:27:38;3.60;32.20
22827;DHT22;11580;52.562;13.418;2023-04-03T04:30:06;3.60;32.30
22827;DHT22;11580;52.562;13.418;2023-04-03T04:32:34;3.60;32.30
22827;DHT22;11580;52.562;13.418;2023-04-03T04:35:03;3.60;32.30
22827;DHT22;11580;52.562;13.418;2023-04-03T04:37:32;3.60;32.40
22827;DHT22;11580;52.562;13.418;2023-04-03T04:40:02;3.60;32.50
22827;DHT22;11580;52.562;13.418;2023-04-03T04:42:29;3.50;32.40
22827;DHT22;11580;52.562;13.418;2023-04-03T04:44:57;3.60;33.30
22827;DHT22;11580;52.562;13.418;2023-04-03T04:47:24;3.60;32.70
22827;DHT22;11580;52.562;13.418;2023-04-03T04:49:51;3.60;32.70
22827;DHT22;11580;52.562;13.418;2023-04-03T04:52:19;3.60;32.80
22827;DHT22;11580;52.562;13.418;2023-04-03T04:54:46;3.60;32.80
22827;DHT22;11580;52.562;13.418;2023-04-03T04:57:15;3.60;32.90
22827;DHT22;11580;52.562;13.418;2023-04-03T04:59:43;3.60;32.90
22827;DHT22;11580;52.562;13.418;2023-04-03T05:02:11;3.60;33.00
22827;DHT22;11580;52.562;13.418;2023-04-03T05:04:40;3.70;33.10
22827;DHT22;11580;52.562;13.418;2023-04-03T05:07:13;3.70;33.10
22827;DHT22;11580;52.562;13.418;2023-04-03T05:09:40;3.70;33.80
22827;DHT22;11580;52.562;13.418;2023-04-03T05:12:08;3.80;33.20
22827;DHT22;11580;52.562;13.418;2023-04-03T05:14:43;3.80;33.20
22827;DHT22;11580;52.562;13.418;2023-04-03T05:17:10;3.80;33.20
22827;DHT22;11580;52.562;13.418;2023-04-03T05:19:42;3.90;33.30
22827;DHT22;11580;52.562;13.418;2023-04-03T05:22:11;3.90;33.30
22827;DHT22;11580;52.562;13.418;2023-04-03T05:24:38;3.90;33.30
22827;DHT22;11580;52.562;13.418;2023-04-03T05:27:07;4.00;33.40
22827;DHT22;11580;52.562;13.418;2023-04-03T05:29:38;4.00;33.40
22827;DHT22;11580;52.562;13.418;2023-04-03T05:32:11;4.00;33.30
22827;DHT22;11580;52.562;13.418;2023-04-03T05:34:38;4.10;33.30
22827;DHT22;11580;52.562;13.418;2023-04-03T05:37:06;4.10;33.40
22827;DHT22;11580;52.562;13.418;2023-04-03T05:39:34;4.20;33.40
22827;DHT22;11580;52.562;13.418;2023-04-03T05:42:03;4.20;33.40
22827;DHT22;11580;52.562;13.418;2023-04-03T05:44:30;4.20;33.40
22827;DHT22;11580;52.562;13.418;2023-04-03T05:46:58;4.30;33.50
22827;DHT22;11580;52.562;13.418;2023-04-03T05:49:27;4.30;33.40
22827;DHT22;11580;52.562;13.418;2023-04-03T05:51:54;4.40;33.30
22827;DHT22;11580;52.562;13.418;2023-04-03T05:54:26;4.40;33.50
22827;DHT22;11580;52.562;13.418;2023-04-03T05:57:02;4.50;33.40
22827;DHT22;11580;52.562;13.418;2023-04-03T05:59:29;4.50;33.30
22827;DHT22;11580;52.562;13.418;2023-04-03T06:01:58;4.60;33.30
22827;DHT22;11580;52.562;13.418;2023-04-03T06:04:28;4.60;33.30
22827;DHT22;11580;52.562;13.418;2023-04-03T06:06:56;4.70;33.20
22827;DHT22;11580;52.562;13.418;2023-04-03T06:09:27;4.70;33.20
22827;DHT22;11580;52.562;13.418;2023-04-03T06:11:55;4.70;33.10
22827;DHT22;11580;52.562;13.418;2023-04-03T06:14:24;4.80;33.40
22827;DHT22;11580;52.562;13.418;2023-04-03T06:16:52;4.80;33.30
22827;DHT22;11580;52.562;13.418;2023-04-03T06:19:20;4.90;33.50
22827;DHT22;11580;52.562;13.418;2023-04-03T06:21:52;4.90;33.40
22827;DHT22;11580;52.562;13.418;2023-04-03T06:24:20;5.00;33.20
22827;DHT22;11580;52.562;13.418;2023-04-03T06:26:50;5.10;33.40
22827;DHT22;11580;52.562;13.418;2023-04-03T06:29:18;5.10;33.20
22827;DHT22;11580;52.562;13.418;2023-04-03T06:31:45;5.20;33.30
22827;DHT22;11580;52.562;13.418;2023-04-03T06:34:13;5.20;33.30
22827;DHT22;11580;52.562;13.418;2023-04-03T06:36:41;5.30;33.10
22827;DHT22;11580;52.562;13.418;2023-04-03T06:39:13;5.40;33.20
22827;DHT22;11580;52.562;13.418;2023-04-03T06:41:42;5.40;32.50
22827;DHT22;11580;52.562;13.418;2023-04-03T06:44:09;5.50;33.10
22827;DHT22;11580;52.562;13.418;2023-04-03T06:46:38;5.50;33.00
22827;DHT22;11580;52.562;13.418;2023-04-03T06:49:06;5.60;33.00
22827;DHT22;11580;52.562;13.418;2023-04-03T06:51:34;5.70;33.00
22827;DHT22;11580;52.562;13.418;2023-04-03T06:54:04;5.80;32.90
22827;DHT22;11580;52.562;13.418;2023-04-03T06:56:35;5.80;32.40
22827;DHT22;11580;52.562;13.418;2023-04-03T06:59:02;5.90;32.30
22827;DHT22;11580;52.562;13.418;2023-04-03T07:01:30;6.00;32.70
22827;DHT22;11580;52.562;13.418;2023-04-03T07:03:58;6.10;32.50
22827;DHT22;11580;52.562;13.418;2023-04-03T07:06:25;6.10;32.40
22827;DHT22;11580;52.562;13.418;2023-04-03T07:08:53;6.20;32.40
22827;DHT22;11580;52.562;13.418;2023-04-03T07:11:21;6.30;32.40
22827;DHT22;11580;52.562;13.418;2023-04-03T07:13:49;6.50;32.10
22827;DHT22;11580;52.562;13.418;2023-04-03T07:16:17;6.60;31.70
22827;DHT22;11580;52.562;13.418;2023-04-03T07:18:45;6.70;32.30
22827;DHT22;11580;52.562;13.418;2023-04-03T07:21:13;6.90;32.60
22827;DHT22;11580;52.562;13.418;2023-04-03T07:23:40;7.10;32.00
22827;DHT22;11580;52.562;13.418;2023-04-03T07:26:07;7.20;32.70
22827;DHT22;11580;52.562;13.418;2023-04-03T07:28:35;7.40;31.20
22827;DHT22;11580;52.562;13.418;2023-04-03T07:31:05;7.60;30.70
22827;DHT22;11580;52.562;13.418;2023-04-03T07:33:34;7.80;29.90
22827;DHT22;11580;52.562;13.418;2023-04-03T07:36:03;8.00;30.00
22827;DHT22;11580;52.562;13.418;2023-04-03T07:38:32;8.10;29.00
22827;DHT22;11580;52.562;13.418;2023-04-03T07:41:00;8.20;28.80
22827;DHT22;11580;52.562;13.418;2023-04-03T07:43:27;8.30;28.60
22827;DHT22;11580;52.562;13.418;2023-04-03T07:45:54;8.30;28.60
22827;DHT22;11580;52.562;13.418;2023-04-03T07:48:24;8.30;28.90
22827;DHT22;11580;52.562;13.418;2023-04-03T07:50:52;8.40;28.30
22827;DHT22;11580;52.562;13.418;2023-04-03T07:53:19;8.50;28.70
22827;DHT22;11580;52.562;13.418;2023-04-03T07:55:47;8.60;28.40
22827;DHT22;11580;52.562;13.418;2023-04-03T07:58:18;8.60;28.10
22827;DHT22;11580;52.562;13.418;2023-04-03T08:00:46;8.70;27.60
22827;DHT22;11580;52.562;13.418;2023-04-03T08:03:14;8.70;27.70
22827;DHT22;11580;52.562;13.418;2023-04-03T08:05:45;8.80;28.00
22827;DHT22;11580;52.562;13.418;2023-04-03T08:08:16;8.80;27.20
22827;DHT22;11580;52.562;13.418;2023-04-03T08:10:45;8.90;27.60
22827;DHT22;11580;52.562;13.418;2023-04-03T08:13:15;9.00;27.30
22827;DHT22;11580;52.562;13.418;2023-04-03T08:15:42;9.00;27.40
22827;DHT22;11580;52.562;13.418;2023-04-03T08:18:09;9.10;27.30
22827;DHT22;11580;52.562;13.418;2023-04-03T08:20:37;9.20;27.00
22827;DHT22;11580;52.562;13.418;2023-04-03T08:23:07;9.20;26.40
22827;DHT22;11580;52.562;13.418;2023-04-03T08:25:37;9.30;26.20
22827;DHT22;11580;52.562;13.418;2023-04-03T08:28:05;9.30;26.00
22827;DHT22;11580;52.562;13.418;2023-04-03T08:30:33;9.30;26.40
22827;DHT22;11580;52.562;13.418;2023-04-03T08:33:02;9.30;26.40
22827;DHT22;11580;52.562;13.418;2023-04-03T08:35:30;9.40;26.20
22827;DHT22;11580;52.562;13.418;2023-04-03T08:37:57;9.40;26.10
22827;DHT22;11580;52.562;13.418;2023-04-03T08:40:25;9.50;26.00
22827;DHT22;11580;52.562;13.418;2023-04-03T08:43:01;9.50;25.50
22827;DHT22;11580;52.562;13.418;2023-04-03T08:45:42;9.60;24.30
22827;DHT22;11580;52.562;13.418;2023-04-03T08:48:15;9.70;25.00
22827;DHT22;11580;52.562;13.418;2023-04-03T08:50:50;9.80;25.30
22827;DHT22;11580;52.562;13.418;2023-04-03T08:53:23;9.90;25.20
22827;DHT22;11580;52.562;13.418;2023-04-03T08:55:56;10.00;24.10
22827;DHT22;11580;52.562;13.418;2023-04-03T08:58:26;10.10;23.80
22827;DHT22;11580;52.562;13.418;2023-04-03T09:00:58;10.10;23.80
22827;DHT22;11580;52.562;13.418;2023-04-03T09:03:29;10.20;23.10
22827;DHT22;11580;52.562;13.418;2023-04-03T09:06:03;10.20;22.60
22827;DHT22;11580;52.562;13.418;2023-04-03T09:08:35;10.10;22.40
22827;DHT22;11580;52.562;13.418;2023-04-03T09:11:16;10.10;22.10
22827;DHT22;11580;52.562;13.418;2023-04-03T09:13:54;9.90;22.40
22827;DHT22;11580;52.562;13.418;2023-04-03T09:16:36;9.80;22.40
22827;DHT22;11580;52.562;13.418;2023-04-03T09:19:17;9.70;22.50
22827;DHT22;11580;52.562;13.418;2023-04-03T09:21:48;9.60;22.40
22827;DHT22;11580;52.562;13.418;2023-04-03T09:24:17;9.50;23.60
22827;DHT22;11580;52.562;13.418;2023-04-03T09:26:51;9.40;23.30
22827;DHT22;11580;52.562;13.418;2023-04-03T09:29:25;9.40;22.50
22827;DHT22;11580;52.562;13.418;2023-04-03T09:31:56;9.30;23.60
22827;DHT22;11580;52.562;13.418;2023-04-03T09:34:27;9.30;23.20
22827;DHT22;11580;52.562;13.418;2023-04-03T09:36:58;9.30;23.40
22827;DHT22;11580;52.562;13.418;2023-04-03T09:39:32;9.30;23.80
22827;DHT22;11580;52.562;13.418;2023-04-03T09:42:20;9.20;23.90
22827;DHT22;11580;52.562;13.418;2023-04-03T09:44:54;9.30;23.40
22827;DHT22;11580;52.562;13.418;2023-04-03T09:47:25;9.30;23.20
22827;DHT22;11580;52.562;13.418;2023-04-03T09:50:15;9.30;24.00
22827;DHT22;11580;52.562;13.418;2023-04-03T09:52:49;9.30;21.90
22827;DHT22;11580;52.562;13.418;2023-04-03T09:55:19;9.40;24.00
22827;DHT22;11580;52.562;13.418;2023-04-03T09:57:55;9.50;24.10
22827;DHT22;11580;52.562;13.418;2023-04-03T10:00:27;9.70;23.70
22827;DHT22;11580;52.562;13.418;2023-04-03T10:02:58;9.80;24.10
22827;DHT22;11580;52.562;13.418;2023-04-03T10:05:34;9.90;24.20
22827;DHT22;11580;52.562;13.418;2023-04-03T10:08:10;10.00;23.10
22827;DHT22;11580;52.562;13.418;2023-04-03T10:10:48;10.20;21.80
22827;DHT22;11580;52.562;13.418;2023-04-03T10:13:33;10.30;22.40
22827;DHT22;11580;52.562;13.418;2023-04-03T10:16:04;10.40;22.30
22827;DHT22;11580;52.562;13.418;2023-04-03T10:18:40;10.40;21.40
22827;DHT22;11580;52.562;13.418;2023-04-03T10:21:29;10.50;21.70
22827;DHT22;11580;52.562;13.418;2023-04-03T10:24:08;10.60;21.80
22827;DHT22;11580;52.562;13.418;2023-04-03T10:26:45;10.70;21.10
22827;DHT22;11580;52.562;13.418;2023-04-03T10:29:38;10.80;21.50
22827;DHT22;11580;52.562;13.418;2023-04-03T10:32:31;10.90;20.10
22827;DHT22;11580;52.562;13.418;2023-04-03T10:35:24;10.90;20.40
22827;DHT22;11580;52.562;13.418;2023-04-03T10:38:04;11.10;20.80
22827;DHT22;11580;52.562;13.418;2023-04-03T10:40:46;11.10;21.00
22827;DHT22;11580;52.562;13.418;2023-04-03T10:43:25;11.30;20.80
22827;DHT22;11580;52.562;13.418;2023-04-03T10:46:04;11.30;19.80
22827;DHT22;11580;52.562;13.418;2023-04-03T10:49:00;11.50;20.80
22827;DHT22;11580;52.562;13.418;2023-04-03T10:51:42;11.60;19.80
22827;DHT22;11580;52.562;13.418;2023-04-03T10:54:13;11.60;20.60
22827;DHT22;11580;52.562;13.418;2023-04-03T10:56:49;11.60;20.90
22827;DHT22;11580;52.562;13.418;2023-04-03T10:59:25;11.70;21.30
22827;DHT22;11580;52.562;13.418;2023-04-03T11:02:00;11.70;20.90
22827;DHT22;11580;52.562;13.418;2023-04-03T11:04:36;11.70;19.90
22827;DHT22;11580;52.562;13.418;2023-04-03T11:07:11;11.70;20.10
22827;DHT22;11580;52.562;13.418;2023-04-03T11:09:44;11.60;19.80
22827;DHT22;11580;52.562;13.418;2023-04-03T11:12:18;11.60;20.50
22827;DHT22;11580;52.562;13.418;2023-04-03T11:14:53;11.60;19.80
22827;DHT22;11580;52.562;13.418;2023-04-03T11:17:28;11.60;20.50
22827;DHT22;11580;52.562;13.418;2023-04-03T11:20:06;11.50;19.70
22827;DHT22;11580;52.562;13.418;2023-04-03T11:22:43;11.50;20.50
22827;DHT22;11580;52.562;13.418;2023-04-03T11:25:17;11.50;21.00
22827;DHT22;11580;52.562;13.418;2023-04-03T11:27:51;11.50;21.00
22827;DHT22;11580;52.562;13.418;2023-04-03T11:30:27;11.50;20.50
22827;DHT22;11580;52.562;13.418;2023-04-03T11:33:09;11.50;20.20
22827;DHT22;11580;52.562;13.418;2023-04-03T11:35:59;11.50;19.70
22827;DHT22;11580;52.562;13.418;2023-04-03T11:38:33;11.50;20.40
22827;DHT22;11580;52.562;13.418;2023-04-03T11:41:06;11.50;20.70
22827;DHT22;11580;52.562;13.418;2023-04-03T11:43:41;11.50;21.50
22827;DHT22;11580;52.562;13.418;2023-04-03T11:46:22;11.50;20.60
22827;DHT22;11580;52.562;13.418;2023-04-03T11:48:52;11.60;21.30
22827;DHT22;11580;52.562;13.418;2023-04-03T11:51:51;11.60;21.10
22827;DHT22;11580;52.562;13.418;2023-04-03T11:54:51;11.60;19.90
22827;DHT22;11580;52.562;13.418;2023-04-03T12:01:06;11.60;20.10
22827;DHT22;11580;52.562;13.418;2023-04-03T12:10:16;11.50;20.40
22827;DHT22;11580;52.562;13.418;2023-04-03T12:12:56;11.50;20.20
22827;DHT22;11580;52.562;13.418;2023-04-03T12:18:53;11.50;20.60
22827;DHT22;11580;52.562;13.418;2023-04-03T12:24:42;11.30;19.60
22827;DHT22;11580;52.562;13.418;2023-04-03T12:27:25;11.30;21.30
22827;DHT22;11580;52.562;13.418;2023-04-03T12:30:04;11.20;20.00
22827;DHT22;11580;52.562;13.418;2023-04-03T12:32:55;11.20;19.90
22827;DHT22;11580;52.562;13.418;2023-04-03T12:35:35;11.30;19.80
22827;DHT22;11580;52.562;13.418;2023-04-03T12:38:23;11.30;21.00
22827;DHT22;11580;52.562;13.418;2023-04-03T12:41:16;11.40;20.40
22827;DHT22;11580;52.562;13.418;2023-04-03T12:43:56;11.50;19.70
22827;DHT22;11580;52.562;13.418;2023-04-03T12:46:36;11.60;20.00
22827;DHT22;11580;52.562;13.418;2023-04-03T12:49:22;11.70;19.90
22827;DHT22;11580;52.562;13.418;2023-04-03T12:52:00;11.70;19.90
22827;DHT22;11580;52.562;13.418;2023-04-03T12:54:34;11.70;20.50
22827;DHT22;11580;52.562;13.418;2023-04-03T12:57:10;11.70;19.90
22827;DHT22;11580;52.562;13.418;2023-04-03T12:59:38;11.70;19.80
22827;DHT22;11580;52.562;13.418;2023-04-03T13:02:23;11.60;20.60
22827;DHT22;11580;52.562;13.418;2023-04-03T13:04:53;11.60;19.30
22827;DHT22;11580;52.562;13.418;2023-04-03T13:07:26;11.50;20.50
22827;DHT22;11580;52.562;13.418;2023-04-03T13:10:03;11.40;20.30
22827;DHT22;11580;52.562;13.418;2023-04-03T13:12:46;11.40;20.20
22827;DHT22;11580;52.562;13.418;2023-04-03T13:15:17;11.40;19.70
22827;DHT22;11580;52.562;13.418;2023-04-03T13:17:46;11.30;20.70
22827;DHT22;11580;52.562;13.418;2023-04-03T13:20:20;11.30;20.90
22827;DHT22;11580;52.562;13.418;2023-04-03T13:22:55;11.30;20.30
22827;DHT22;11580;52.562;13.418;2023-04-03T13:25:30;11.20;20.10
22827;DHT22;11580;52.562;13.418;2023-04-03T13:28:00;11.20;20.80
22827;DHT22;11580;52.562;13.418;2023-04-03T13:30:32;11.30;21.30
22827;DHT22;11580;52.562;13.418;2023-04-03T13:33:04;11.30;21.10
22827;DHT22;11580;52.562;13.418;2023-04-03T13:35:37;11.30;21.30
22827;DHT22;11580;52.562;13.418;2023-04-03T13:38:22;11.30;20.60
22827;DHT22;11580;52.562;13.418;2023-04-03T13:40:54;11.30;20.60
22827;DHT22;11580;52.562;13.418;2023-04-03T13:43:25;11.30;20.30
22827;DHT22;11580;52.562;13.418;2023-04-03T13:45:59;11.30;20.70
22827;DHT22;11580;52.562;13.418;2023-04-03T13:48:38;11.30;20.40
22827;DHT22;11580;52.562;13.418;2023-04-03T13:51:17;11.20;20.10
22827;DHT22;11580;52.562;13.418;2023-04-03T13:53:48;11.20;19.50
22827;DHT22;11580;52.562;13.418;2023-04-03T13:56:23;11.10;20.20
22827;DHT22;11580;52.562;13.418;2023-04-03T13:59:18;11.00;19.50
22827;DHT22;11580;52.562;13.418;2023-04-03T14:01:52;10.90;19.60
22827;DHT22;11580;52.562;13.418;2023-04-03T14:04:22;10.90;20.50
22827;DHT22;11580;52.562;13.418;2023-04-03T14:06:52;10.80;20.40
22827;DHT22;11580;52.562;13.418;2023-04-03T14:09:21;10.80;20.80
22827;DHT22;11580;52.562;13.418;2023-04-03T14:11:54;10.80;20.90
22827;DHT22;11580;52.562;13.418;2023-04-03T14:14:27;10.80;21.00
22827;DHT22;11580;52.562;13.418;2023-04-03T14:16:59;10.80;20.80
22827;DHT22;11580;52.562;13.418;2023-04-03T14:19:29;10.90;21.20
22827;DHT22;11580;52.562;13.418;2023-04-03T14:22:00;10.90;21.10
22827;DHT22;11580;52.562;13.418;2023-04-03T14:24:33;11.00;21.50
22827;DHT22;11580;52.562;13.418;2023-04-03T14:27:02;11.00;20.80
22827;DHT22;11580;52.562;13.418;2023-04-03T14:29:32;11.00;20.60
22827;DHT22;11580;52.562;13.418;2023-04-03T14:31:59;10.90;21.10
22827;DHT22;11580;52.562;13.418;2023-04-03T14:34:26;10.90;21.30
22827;DHT22;11580;52.562;13.418;2023-04-03T14:36:53;10.90;21.50
22827;DHT22;11580;52.562;13.418;2023-04-03T14:39:20;11.00;21.60
22827;DHT22;11580;52.562;13.418;2023-04-03T14:41:47;11.00;21.60
22827;DHT22;11580;52.562;13.418;2023-04-03T14:44:16;11.00;21.00
22827;DHT22;11580;52.562;13.418;2023-04-03T14:46:44;11.00;20.80
22827;DHT22;11580;52.562;13.418;2023-04-03T14:49:14;11.00;20.90
22827;DHT22;11580;52.562;13.418;2023-04-03T14:51:42;10.90;20.80
22827;DHT22;11580;52.562;13.418;2023-04-03T14:54:13;10.80;21.10
22827;DHT22;11580;52.562;13.418;2023-04-03T14:56:41;10.80;21.10
22827;DHT22;11580;52.562;13.418;2023-04-03T14:59:12;10.70;20.90
22827;DHT22;11580;52.562;13.418;2023-04-03T15:01:41;10.60;20.80
22827;DHT22;11580;52.562;13.418;2023-04-03T15:04:12;10.50;20.90
22827;DHT22;11580;52.562;13.418;2023-04-03T15:06:40;10.50;21.10
22827;DHT22;11580;52.562;13.418;2023-04-03T15:09:15;10.40;21.40
22827;DHT22;11580;52.562;13.418;2023-04-03T15:11:46;10.30;20.80
22827;DHT22;11580;52.562;13.418;2023-04-03T15:14:14;10.20;21.60
22827;DHT22;11580;52.562;13.418;2023-04-03T15:16:43;10.10;21.70
22827;DHT22;11580;52.562;13.418;2023-04-03T15:19:11;10.10;21.50
22827;DHT22;11580;52.562;13.418;2023-04-03T15:21:39;10.00;22.30
22827;DHT22;11580;52.562;13.418;2023-04-03T15:24:06;9.90;22.50
22827;DHT22;11580;52.562;13.418;2023-04-03T15:26:33;9.90;23.20
22827;DHT22;11580;52.562;13.418;2023-04-03T15:29:01;9.90;22.80
22827;DHT22;11580;52.562;13.418;2023-04-03T15:31:28;9.80;22.90
22827;DHT22;11580;52.562;13.418;2023-04-03T15:33:56;9.80;23.00
22827;DHT22;11580;52.562;13.418;2023-04-03T15:36:23;9.70;22.70
22827;DHT22;11580;52.562;13.418;2023-04-03T15:38:51;9.70;23.10
22827;DHT22;11580;52.562;13.418;2023-04-03T15:41:18;9.70;23.00
22827;DHT22;11580;52.562;13.418;2023-04-03T15:43:45;9.70;23.10
22827;DHT22;11580;52.562;13.418;2023-04-03T15:46:13;9.70;23.20
22827;DHT22;11580;52.562;13.418;2023-04-03T15:48:40;9.70;23.20
22827;DHT22;11580;52.562;13.418;2023-04-03T15:51:08;9.80;23.70
22827;DHT22;11580;52.562;13.418;2023-04-03T15:53:36;9.80;22.90
22827;DHT22;11580;52.562;13.418;2023-04-03T15:56:03;9.70;22.80
22827;DHT22;11580;52.562;13.418;2023-04-03T15:58:31;9.70;22.80
22827;DHT22;11580;52.562;13.418;2023-04-03T16:00:58;9.70;23.30
22827;DHT22;11580;52.562;13.418;2023-04-03T16:03:25;9.60;23.00
22827;DHT22;11580;52.562;13.418;2023-04-03T16:05:53;9.50;22.90
22827;DHT22;11580;52.562;13.418;2023-04-03T16:08:21;9.40;23.60